createdAt,value
2023-04-30T00:00:11.989Z,74.85
2023-04-30T00:05:38.647Z,74.50
2023-04-30T00:10:44.373Z,75.05
2023-04-30T00:15:49.986Z,75.78
2023-04-30T00:20:55.628Z,76.63
2023-04-30T00:26:01.932Z,76.95
2023-04-30T00:31:09.347Z,75.80
2023-04-30T00:36:14.890Z,75.64
2023-04-30T00:41:22.879Z,75.00
2023-04-30T00:46:29.144Z,75.88
2023-04-30T00:51:35.725Z,76.41
2023-04-30T00:56:41.494Z,76.15
2023-04-30T01:01:47.283Z,76.56
2023-04-30T01:06:53.194Z,76.96
2023-04-30T01:12:09.397Z,76.75
2023-04-30T01:17:23.634Z,77.32
2023-04-30T01:22:43.685Z,77.71
2023-04-30T01:28:05.719Z,78.21
2023-04-30T01:33:11.833Z,78.91
2023-04-30T01:38:31.750Z,79.51
2023-04-30T01:43:46.254Z,79.90
2023-04-30T01:49:11.113Z,80.63
2023-04-30T01:54:27.152Z,82.46
2023-04-30T01:59:35.565Z,84.24
2023-04-30T02:04:41.269Z,85.30
2023-04-30T02:09:46.767Z,86.10
2023-04-30T02:14:52.635Z,86.51
2023-04-30T02:19:58.298Z,86.86
2023-04-30T02:25:04.802Z,87.00
2023-04-30T02:30:11.133Z,87.09
2023-04-30T02:35:16.856Z,87.11
2023-04-30T02:40:22.384Z,87.21
2023-04-30T02:45:28.178Z,87.11
2023-04-30T02:50:34.243Z,86.86
2023-04-30T02:55:39.576Z,86.84
2023-04-30T03:00:45.057Z,86.34
2023-04-30T03:05:50.557Z,86.04
2023-04-30T03:10:56.276Z,85.60
2023-04-30T03:16:04.665Z,84.92
2023-04-30T03:21:10.284Z,84.71
2023-04-30T03:26:15.734Z,84.81
2023-04-30T03:31:21.371Z,84.84
2023-04-30T03:36:27.505Z,84.95
2023-04-30T03:41:33.424Z,83.48
2023-04-30T03:46:43.771Z,80.83
2023-04-30T03:51:49.712Z,79.54
2023-04-30T03:56:56.125Z,78.84
2023-04-30T04:02:03.500Z,78.36
2023-04-30T04:07:11.383Z,78.19
2023-04-30T04:12:16.763Z,78.14
2023-04-30T04:17:22.386Z,77.53
2023-04-30T04:22:27.951Z,75.52
2023-04-30T04:27:33.810Z,74.20
2023-04-30T04:32:49.633Z,73.90
2023-04-30T04:37:55.582Z,73.75
2023-04-30T04:43:03.034Z,74.22
2023-04-30T04:48:08.926Z,74.68
2023-04-30T04:53:14.352Z,74.96
2023-04-30T04:58:19.724Z,75.05
2023-04-30T05:03:25.554Z,73.67
2023-04-30T05:08:31.377Z,73.19
2023-04-30T05:13:36.989Z,72.64
2023-04-30T05:18:42.402Z,72.31
2023-04-30T05:23:48.407Z,72.31
2023-04-30T05:28:53.755Z,72.13
2023-04-30T05:33:59.490Z,72.34
2023-04-30T05:39:05.389Z,72.64
2023-04-30T05:44:11.158Z,72.19
2023-04-30T05:49:16.587Z,71.26
2023-04-30T05:54:22.822Z,70.11
2023-04-30T05:59:28.606Z,68.81
2023-04-30T06:04:34.364Z,67.31
2023-04-30T06:09:40.030Z,65.29
2023-04-30T06:14:46.168Z,64.13
2023-04-30T06:19:52.330Z,62.73
2023-04-30T06:24:58.518Z,58.23
2023-04-30T06:30:04.649Z,52.76
2023-04-30T06:35:11.082Z,50.69
2023-04-30T06:40:16.575Z,48.19
2023-04-30T06:45:22.007Z,42.23
2023-04-30T06:50:27.573Z,36.06
2023-04-30T06:55:33.307Z,33.39
2023-04-30T07:00:38.796Z,29.12
2023-04-30T07:05:44.716Z,28.44
2023-04-30T07:10:50.730Z,26.16
2023-04-30T07:15:56.581Z,25.91
2023-04-30T07:21:02.421Z,26.02
2023-04-30T07:26:08.115Z,26.34
2023-04-30T07:31:15.919Z,27.31
2023-04-30T07:36:21.511Z,27.04
2023-04-30T07:41:27.357Z,26.55
2023-04-30T07:46:33.321Z,28.96
2023-04-30T07:51:39.561Z,27.58
2023-04-30T07:56:45.119Z,26.59
2023-04-30T08:01:50.578Z,24.77
2023-04-30T08:06:56.014Z,23.90
2023-04-30T08:12:04.863Z,22.18
2023-04-30T08:17:10.417Z,22.51
2023-04-30T08:22:16.419Z,21.87
2023-04-30T08:27:22.105Z,22.04
2023-04-30T08:32:28.211Z,21.64
2023-04-30T08:37:34.623Z,22.15
2023-04-30T08:42:46.177Z,21.11
2023-04-30T08:47:52.135Z,21.18
2023-04-30T08:52:58.753Z,22.03
2023-04-30T08:58:05.938Z,22.84
2023-04-30T09:03:11.613Z,22.65
2023-04-30T09:08:40.055Z,22.00
2023-04-30T09:13:44.076Z,21.78
2023-04-30T09:18:49.615Z,20.79
2023-04-30T09:23:58.690Z,21.16
2023-04-30T09:29:08.669Z,21.19
2023-04-30T09:34:15.234Z,21.04
2023-04-30T09:39:21.023Z,20.92
2023-04-30T09:44:32.690Z,21.01
2023-04-30T09:49:40.844Z,20.82
2023-04-30T09:54:47.767Z,21.20
2023-04-30T09:59:54.222Z,20.62
2023-04-30T10:05:01.392Z,19.64
2023-04-30T10:10:10.722Z,19.47
2023-04-30T10:15:19.027Z,19.80
2023-04-30T10:20:26.750Z,19.80
2023-04-30T10:25:33.976Z,19.13
2023-04-30T10:30:41.303Z,18.56
2023-04-30T10:35:51.103Z,18.34
2023-04-30T10:40:58.826Z,19.63
2023-04-30T10:46:05.129Z,19.31
2023-04-30T10:51:10.957Z,19.42
2023-04-30T10:56:31.387Z,19.18
2023-04-30T11:01:57.325Z,18.81
2023-04-30T11:07:10.078Z,19.37
2023-04-30T11:12:20.880Z,18.85
2023-04-30T11:17:28.956Z,19.39
2023-04-30T11:22:38.207Z,19.96
2023-04-30T11:27:45.327Z,20.01
2023-04-30T11:32:51.979Z,20.28
2023-04-30T11:38:00.773Z,20.59
2023-04-30T11:43:06.910Z,20.60
2023-04-30T11:48:14.776Z,21.02
2023-04-30T11:53:26.827Z,22.02
2023-04-30T11:58:38.710Z,22.50
2023-04-30T12:03:46.408Z,23.89
2023-04-30T12:08:55.099Z,23.29
2023-04-30T12:14:05.226Z,23.66
2023-04-30T12:19:11.459Z,23.88
2023-04-30T12:24:18.847Z,24.03
2023-04-30T12:29:25.834Z,25.27
2023-04-30T12:34:33.921Z,24.82
2023-04-30T12:39:39.868Z,24.74
2023-04-30T12:44:45.706Z,24.88
2023-04-30T12:49:51.730Z,24.80
2023-04-30T12:54:57.388Z,25.45
2023-04-30T13:00:05.860Z,25.67
2023-04-30T13:05:13.660Z,25.35
2023-04-30T13:10:20.181Z,25.30
2023-04-30T13:15:26.048Z,24.92
2023-04-30T13:20:31.574Z,24.71
2023-04-30T13:25:39.268Z,24.65
2023-04-30T13:30:45.261Z,25.40
2023-04-30T13:35:50.857Z,25.18
2023-04-30T13:40:56.677Z,25.45
2023-04-30T13:46:03.293Z,25.73
2023-04-30T13:51:08.873Z,25.78
2023-04-30T13:56:15.562Z,25.02
2023-04-30T14:01:21.432Z,26.00
2023-04-30T14:06:29.506Z,25.85
2023-04-30T14:11:35.401Z,26.50
2023-04-30T14:16:41.110Z,26.23
2023-04-30T14:21:46.776Z,25.57
2023-04-30T14:26:52.397Z,25.82
2023-04-30T14:31:58.184Z,25.81
2023-04-30T14:37:05.212Z,25.94
2023-04-30T14:42:11.095Z,26.14
2023-04-30T14:47:17.294Z,26.67
2023-04-30T14:52:23.220Z,26.78
2023-04-30T14:57:28.814Z,26.31
2023-04-30T15:02:34.510Z,26.79
2023-04-30T15:07:40.623Z,27.54
2023-04-30T15:12:46.394Z,26.99
2023-04-30T15:17:52.894Z,26.97
2023-04-30T15:22:58.505Z,27.11
2023-04-30T15:28:05.006Z,26.77
2023-04-30T15:33:10.592Z,26.86
2023-04-30T15:38:16.523Z,27.04
2023-04-30T15:43:23.536Z,27.44
2023-04-30T15:48:29.102Z,27.74
2023-04-30T15:53:34.733Z,27.91
2023-04-30T15:58:40.676Z,27.66
2023-04-30T16:03:46.593Z,28.02
2023-04-30T16:08:52.557Z,28.27
2023-04-30T16:13:58.037Z,28.60
2023-04-30T16:19:03.886Z,28.84
2023-04-30T16:24:10.501Z,29.10
2023-04-30T16:29:16.150Z,29.48
2023-04-30T16:34:22.253Z,29.53
2023-04-30T16:39:27.782Z,29.76
2023-04-30T16:44:33.527Z,29.86
2023-04-30T16:49:39.989Z,30.14
2023-04-30T16:54:45.987Z,30.53
2023-04-30T16:59:51.539Z,30.75
2023-04-30T17:04:57.651Z,30.99
2023-04-30T17:10:05.468Z,31.45
2023-04-30T17:15:12.028Z,31.91
2023-04-30T17:20:17.806Z,32.34
2023-04-30T17:25:23.980Z,32.36
2023-04-30T17:30:29.679Z,32.95
2023-04-30T17:35:35.292Z,32.86
2023-04-30T17:40:40.780Z,33.54
2023-04-30T17:45:46.503Z,34.25
2023-04-30T17:50:52.004Z,34.43
2023-04-30T17:55:59.899Z,35.35
2023-04-30T18:01:06.258Z,36.03
2023-04-30T18:06:11.758Z,36.90
2023-04-30T18:11:17.474Z,37.53
2023-04-30T18:16:22.916Z,37.82
2023-04-30T18:21:28.408Z,38.32
2023-04-30T18:26:33.818Z,39.64
2023-04-30T18:31:39.725Z,40.37
2023-04-30T18:36:45.266Z,40.94
2023-04-30T18:41:51.020Z,41.70
2023-04-30T18:46:57.321Z,42.21
2023-04-30T18:52:02.860Z,43.46
2023-04-30T18:57:12.397Z,43.85
2023-04-30T19:02:18.138Z,44.14
2023-04-30T19:07:24.766Z,44.92
2023-04-30T19:12:30.723Z,45.68
2023-04-30T19:17:36.501Z,46.71
2023-04-30T19:22:42.649Z,47.64
2023-04-30T19:27:48.602Z,49.19
2023-04-30T19:32:54.152Z,50.88
2023-04-30T19:38:00.100Z,52.61
2023-04-30T19:43:07.634Z,54.03
2023-04-30T19:48:23.223Z,54.90
2023-04-30T19:53:29.139Z,55.62
2023-04-30T19:58:34.856Z,57.10
2023-04-30T20:03:49.851Z,57.90
2023-04-30T20:09:18.076Z,59.44
2023-04-30T20:14:25.134Z,60.24
2023-04-30T20:19:32.183Z,61.59
2023-04-30T20:24:37.753Z,62.88
2023-04-30T20:29:43.407Z,63.38
2023-04-30T20:34:49.276Z,65.03
2023-04-30T20:39:54.863Z,65.99
2023-04-30T20:45:01.958Z,66.47
2023-04-30T20:50:15.362Z,67.81
2023-04-30T20:55:21.446Z,67.93
2023-04-30T21:00:27.773Z,68.79
2023-04-30T21:05:34.306Z,67.40
2023-04-30T21:10:41.120Z,66.40
2023-04-30T21:15:48.605Z,67.96
2023-04-30T21:20:56.389Z,68.18
2023-04-30T21:26:02.646Z,69.03
2023-04-30T21:31:09.283Z,69.74
2023-04-30T21:36:16.502Z,70.58
2023-04-30T21:41:24.663Z,71.38
2023-04-30T21:46:30.219Z,71.95
2023-04-30T21:51:37.224Z,72.71
2023-04-30T21:56:42.713Z,73.88
2023-04-30T22:01:48.404Z,74.85
2023-04-30T22:06:54.380Z,74.88
2023-04-30T22:12:00.235Z,74.71
2023-04-30T22:17:06.179Z,75.58
2023-04-30T22:22:11.996Z,75.21
2023-04-30T22:27:17.903Z,75.78
2023-04-30T22:32:23.604Z,76.04
2023-04-30T22:37:29.894Z,76.77
2023-04-30T22:42:35.895Z,77.02
2023-04-30T22:47:42.187Z,77.46
2023-04-30T22:52:48.553Z,77.93
2023-04-30T22:57:54.226Z,78.55
2023-04-30T23:03:00.281Z,79.14
2023-04-30T23:08:06.261Z,79.53
2023-04-30T23:13:11.827Z,79.46
2023-04-30T23:18:17.844Z,79.78
2023-04-30T23:23:23.494Z,79.96
2023-04-30T23:28:29.149Z,80.07
2023-04-30T23:33:34.891Z,80.81
2023-04-30T23:38:40.742Z,81.55
2023-04-30T23:43:46.620Z,81.71
2023-04-30T23:48:52.182Z,81.98
2023-04-30T23:53:57.645Z,82.28
2023-04-30T23:59:03.418Z,81.93
